createdAt,value
2023-02-26T00:01:41.609Z,20.20
2023-02-26T00:04:10.055Z,20.20
2023-02-26T00:06:52.514Z,20.20
2023-02-26T00:09:20.450Z,20.20
2023-02-26T00:11:48.263Z,20.20
2023-02-26T00:14:17.513Z,20.20
2023-02-26T00:16:53.998Z,20.20
2023-02-26T00:19:21.245Z,20.20
2023-02-26T00:21:48.554Z,20.10
2023-02-26T00:24:15.501Z,20.20
2023-02-26T00:26:42.462Z,20.20
2023-02-26T00:29:09.733Z,20.20
2023-02-26T00:31:37.248Z,20.20
2023-02-26T00:34:05.212Z,20.20
2023-02-26T00:36:46.635Z,20.20
2023-02-26T00:39:37.992Z,20.20
2023-02-26T00:42:05.434Z,20.10
2023-02-26T00:44:33.307Z,20.10
2023-02-26T00:48:00.024Z,20.20
2023-02-26T00:50:28.049Z,20.10
2023-02-26T00:53:13.006Z,20.10
2023-02-26T00:55:39.952Z,20.10
2023-02-26T00:58:06.895Z,20.10
2023-02-26T01:00:33.871Z,20.10
2023-02-26T01:03:01.155Z,20.10
2023-02-26T01:05:28.618Z,20.10
2023-02-26T01:08:24.479Z,20.10
2023-02-26T01:10:52.430Z,20.10
2023-02-26T01:13:20.094Z,20.10
2023-02-26T01:15:54.706Z,20.10
2023-02-26T01:18:33.133Z,20.10
2023-02-26T01:21:13.959Z,20.10
2023-02-26T01:23:46.801Z,20.00
2023-02-26T01:26:28.065Z,20.00
2023-02-26T01:28:56.334Z,20.10
2023-02-26T01:32:15.746Z,20.00
2023-02-26T01:34:55.255Z,20.10
2023-02-26T01:38:10.491Z,20.00
2023-02-26T01:41:02.214Z,20.00
2023-02-26T01:43:44.438Z,20.00
2023-02-26T01:46:39.083Z,20.00
2023-02-26T01:49:13.659Z,20.00
2023-02-26T01:51:58.853Z,20.00
2023-02-26T01:54:32.304Z,20.00
2023-02-26T01:57:14.805Z,20.00
2023-02-26T01:59:50.500Z,20.00
2023-02-26T02:02:25.039Z,20.00
2023-02-26T02:04:53.459Z,20.00
2023-02-26T02:07:20.863Z,19.90
2023-02-26T02:09:47.867Z,19.90
2023-02-26T02:12:33.495Z,19.90
2023-02-26T02:15:15.365Z,20.00
2023-02-26T02:18:05.465Z,19.90
2023-02-26T02:21:16.044Z,19.90
2023-02-26T02:24:11.596Z,19.90
2023-02-26T02:26:59.574Z,19.90
2023-02-26T02:29:41.320Z,19.90
2023-02-26T02:32:33.012Z,19.90
2023-02-26T02:35:28.734Z,19.90
2023-02-26T02:38:17.861Z,19.90
2023-02-26T02:40:52.712Z,19.90
2023-02-26T02:43:32.573Z,19.80
2023-02-26T02:46:05.364Z,19.80
2023-02-26T02:49:26.310Z,19.80
2023-02-26T02:52:15.722Z,19.80
2023-02-26T02:55:14.816Z,19.80
2023-02-26T02:57:56.019Z,19.80
2023-02-26T03:00:25.870Z,19.80
2023-02-26T03:02:55.810Z,19.80
2023-02-26T03:05:24.125Z,19.80
2023-02-26T03:08:10.505Z,19.80
2023-02-26T03:10:39.320Z,19.80
2023-02-26T03:13:06.364Z,19.70
2023-02-26T03:15:46.189Z,19.70
2023-02-26T03:18:45.751Z,19.80
2023-02-26T03:21:28.311Z,19.80
2023-02-26T03:24:17.340Z,19.70
2023-02-26T03:26:54.811Z,19.70
2023-02-26T03:29:47.251Z,19.70
2023-02-26T03:32:24.872Z,19.70
2023-02-26T03:35:18.796Z,19.70
2023-02-26T03:37:51.817Z,19.70
2023-02-26T03:40:47.792Z,19.70
2023-02-26T03:43:38.950Z,19.70
2023-02-26T03:46:13.195Z,19.70
2023-02-26T03:48:40.240Z,19.70
2023-02-26T03:51:14.721Z,19.70
2023-02-26T03:53:49.713Z,19.60
2023-02-26T03:56:40.246Z,19.60
2023-02-26T03:59:08.190Z,19.60
2023-02-26T04:02:08.239Z,19.60
2023-02-26T04:05:09.156Z,19.60
2023-02-26T04:07:36.231Z,19.60
2023-02-26T04:10:04.021Z,19.60
2023-02-26T04:12:32.144Z,19.60
2023-02-26T04:14:59.717Z,19.60
2023-02-26T04:17:26.690Z,19.60
2023-02-26T04:19:53.663Z,19.60
2023-02-26T04:22:20.798Z,19.60
2023-02-26T04:24:47.655Z,19.60
2023-02-26T04:27:14.523Z,19.50
2023-02-26T04:29:41.428Z,19.50
2023-02-26T04:32:08.761Z,19.60
2023-02-26T04:34:35.803Z,19.50
2023-02-26T04:37:02.756Z,19.50
2023-02-26T04:39:29.602Z,19.50
2023-02-26T04:41:56.508Z,19.50
2023-02-26T04:44:23.860Z,19.50
2023-02-26T04:46:50.758Z,19.50
2023-02-26T04:49:17.719Z,19.50
2023-02-26T04:51:44.956Z,19.50
2023-02-26T04:54:11.812Z,19.50
2023-02-26T04:56:38.691Z,19.50
2023-02-26T04:59:05.758Z,19.60
2023-02-26T05:01:32.935Z,19.50
2023-02-26T05:04:01.207Z,19.40
2023-02-26T05:06:28.170Z,19.40
2023-02-26T05:08:55.106Z,19.40
2023-02-26T05:11:22.345Z,19.50
2023-02-26T05:13:49.341Z,19.40
2023-02-26T05:16:16.428Z,19.40
2023-02-26T05:18:43.444Z,19.40
2023-02-26T05:21:10.636Z,19.40
2023-02-26T05:23:37.493Z,19.40
2023-02-26T05:26:04.629Z,19.40
2023-02-26T05:28:31.862Z,19.40
2023-02-26T05:30:59.031Z,19.40
2023-02-26T05:33:26.894Z,19.40
2023-02-26T05:35:54.081Z,19.30
2023-02-26T05:38:21.106Z,19.40
2023-02-26T05:40:48.183Z,19.40
2023-02-26T05:43:15.165Z,19.30
2023-02-26T05:45:42.067Z,19.40
2023-02-26T05:48:11.090Z,19.30
2023-02-26T05:50:38.130Z,19.30
2023-02-26T05:53:05.085Z,19.30
2023-02-26T05:55:32.600Z,19.30
2023-02-26T05:57:59.583Z,19.30
2023-02-26T06:00:27.177Z,19.30
2023-02-26T06:02:54.568Z,19.30
2023-02-26T06:05:21.427Z,19.30
2023-02-26T06:07:48.360Z,19.30
2023-02-26T06:10:15.519Z,19.30
2023-02-26T06:12:42.597Z,19.30
2023-02-26T06:15:10.837Z,19.30
2023-02-26T06:17:40.705Z,19.30
2023-02-26T06:20:09.085Z,19.20
2023-02-26T06:22:36.047Z,19.20
2023-02-26T06:25:04.662Z,19.30
2023-02-26T06:27:31.933Z,19.20
2023-02-26T06:29:59.181Z,19.20
2023-02-26T06:32:28.342Z,19.60
2023-02-26T06:34:56.497Z,19.20
2023-02-26T06:37:23.575Z,19.20
2023-02-26T06:39:50.547Z,19.20
2023-02-26T06:42:19.940Z,19.20
2023-02-26T06:44:47.137Z,19.20
2023-02-26T06:47:14.535Z,19.30
2023-02-26T06:49:41.424Z,19.20
2023-02-26T06:52:08.508Z,19.20
2023-02-26T06:54:35.466Z,19.20
2023-02-26T06:57:03.365Z,19.30
2023-02-26T06:59:31.032Z,19.20
2023-02-26T07:01:57.993Z,19.20
2023-02-26T07:04:25.318Z,19.20
2023-02-26T07:06:52.321Z,19.20
2023-02-26T07:09:22.394Z,19.20
2023-02-26T07:11:49.437Z,19.20
2023-02-26T07:14:17.403Z,19.20
2023-02-26T07:16:44.414Z,19.20
2023-02-26T07:19:11.303Z,19.20
2023-02-26T07:21:38.342Z,19.20
2023-02-26T07:24:06.087Z,19.20
2023-02-26T07:26:33.243Z,19.20
2023-02-26T07:29:00.135Z,19.20
2023-02-26T07:31:27.184Z,19.20
2023-02-26T07:33:54.203Z,19.20
2023-02-26T07:36:24.744Z,19.20
2023-02-26T07:38:51.840Z,19.20
2023-02-26T07:41:18.814Z,19.20
2023-02-26T07:43:46.825Z,19.20
2023-02-26T07:46:13.964Z,19.30
2023-02-26T07:48:41.449Z,19.20
2023-02-26T07:51:11.130Z,19.20
2023-02-26T07:53:38.115Z,19.20
2023-02-26T07:56:05.750Z,19.30
2023-02-26T07:58:33.121Z,19.30
2023-02-26T08:01:00.082Z,19.20
2023-02-26T08:03:28.272Z,19.30
2023-02-26T08:05:55.340Z,19.20
2023-02-26T08:08:22.363Z,19.30
2023-02-26T08:10:49.256Z,19.20
2023-02-26T08:13:16.196Z,19.30
2023-02-26T08:15:44.300Z,19.30
2023-02-26T08:18:12.553Z,19.30
2023-02-26T08:20:39.828Z,19.30
2023-02-26T08:23:06.771Z,19.30
2023-02-26T08:25:33.700Z,19.30
2023-02-26T08:28:01.711Z,19.30
2023-02-26T08:30:29.049Z,19.20
2023-02-26T08:32:55.973Z,19.30
2023-02-26T08:35:23.125Z,19.30
2023-02-26T08:37:50.082Z,19.30
2023-02-26T08:40:17.513Z,19.30
2023-02-26T08:42:44.487Z,19.30
2023-02-26T08:45:12.179Z,19.30
2023-02-26T08:47:53.978Z,19.30
2023-02-26T08:50:23.782Z,19.30
2023-02-26T08:52:50.788Z,19.30
2023-02-26T08:55:18.065Z,19.30
2023-02-26T08:57:45.086Z,19.30
2023-02-26T09:00:13.028Z,19.40
2023-02-26T09:02:40.055Z,19.40
2023-02-26T09:05:07.647Z,19.40
2023-02-26T09:07:34.647Z,19.40
2023-02-26T09:10:01.784Z,19.40
2023-02-26T09:12:31.165Z,19.40
2023-02-26T09:14:59.138Z,19.30
2023-02-26T09:17:26.619Z,19.30
2023-02-26T09:19:53.577Z,19.40
2023-02-26T09:22:20.610Z,19.40
2023-02-26T09:24:47.788Z,19.50
2023-02-26T09:27:14.777Z,19.60
2023-02-26T09:29:42.076Z,19.60
2023-02-26T09:32:09.147Z,19.70
2023-02-26T09:34:37.901Z,19.80
2023-02-26T09:37:07.435Z,20.00
2023-02-26T09:39:36.008Z,20.20
2023-02-26T09:42:49.492Z,20.30
2023-02-26T09:45:31.101Z,20.50
2023-02-26T09:48:00.290Z,20.80
2023-02-26T09:50:48.149Z,20.90
2023-02-26T09:53:38.674Z,21.20
2023-02-26T09:56:16.356Z,21.40
2023-02-26T09:58:46.779Z,21.60
2023-02-26T10:01:30.192Z,21.80
2023-02-26T10:04:19.465Z,22.00
2023-02-26T10:06:59.398Z,22.20
2023-02-26T10:09:35.601Z,22.30
2023-02-26T10:12:17.449Z,22.50
2023-02-26T10:15:16.485Z,22.70
2023-02-26T10:17:55.371Z,22.90
2023-02-26T10:20:44.877Z,23.00
2023-02-26T10:23:24.026Z,23.10
2023-02-26T10:26:25.754Z,23.30
2023-02-26T10:29:23.279Z,23.30
2023-02-26T10:32:06.124Z,23.50
2023-02-26T10:34:49.903Z,23.60
2023-02-26T10:37:39.042Z,23.70
2023-02-26T10:40:40.220Z,23.80
2023-02-26T10:43:30.450Z,23.90
2023-02-26T10:46:33.789Z,24.00
2023-02-26T10:49:39.901Z,24.10
2023-02-26T10:52:19.706Z,24.20
2023-02-26T10:55:07.782Z,24.30
2023-02-26T10:57:47.976Z,24.50
2023-02-26T11:00:21.414Z,24.70
2023-02-26T11:02:56.497Z,24.80
2023-02-26T11:05:31.093Z,25.00
2023-02-26T11:08:14.744Z,25.10
2023-02-26T11:10:52.090Z,25.30
2023-02-26T11:13:21.173Z,25.40
2023-02-26T11:15:54.321Z,25.50
2023-02-26T11:18:53.393Z,25.70
2023-02-26T11:21:28.759Z,25.80
2023-02-26T11:24:05.457Z,26.00
2023-02-26T11:26:38.168Z,26.10
2023-02-26T11:29:06.721Z,26.20
2023-02-26T11:31:34.152Z,26.30
2023-02-26T11:34:06.111Z,26.30
2023-02-26T11:36:37.295Z,26.40
2023-02-26T11:39:26.634Z,26.50
2023-02-26T11:41:58.441Z,26.50
2023-02-26T11:44:45.866Z,26.50
2023-02-26T11:47:16.614Z,26.50
2023-02-26T11:49:51.015Z,26.60
2023-02-26T11:52:40.826Z,26.80
2023-02-26T11:55:33.550Z,27.00
2023-02-26T11:58:00.484Z,27.30
2023-02-26T12:00:39.293Z,27.50
2023-02-26T12:03:17.397Z,27.60
2023-02-26T12:05:45.453Z,27.80
2023-02-26T12:08:31.303Z,27.90
2023-02-26T12:11:56.651Z,28.00
2023-02-26T12:14:42.354Z,28.10
2023-02-26T12:17:57.095Z,28.30
2023-02-26T12:21:14.422Z,28.50
2023-02-26T12:24:35.414Z,28.70
2023-02-26T12:27:44.818Z,28.90
2023-02-26T12:31:03.219Z,29.20
2023-02-26T12:33:47.200Z,29.40
2023-02-26T12:36:28.336Z,29.60
2023-02-26T12:40:02.368Z,29.80
2023-02-26T12:43:05.764Z,30.00
2023-02-26T12:45:57.571Z,30.20
2023-02-26T12:48:43.542Z,30.30
2023-02-26T12:51:42.968Z,30.40
2023-02-26T12:54:54.981Z,30.40
2023-02-26T12:57:54.076Z,30.60
2023-02-26T13:00:51.835Z,30.50
2023-02-26T13:03:50.867Z,30.60
2023-02-26T13:06:45.603Z,30.50
2023-02-26T13:10:26.027Z,30.50
2023-02-26T13:13:16.939Z,30.60
2023-02-26T13:16:28.914Z,30.60
2023-02-26T13:19:29.749Z,30.60
2023-02-26T13:22:11.970Z,30.60
2023-02-26T13:24:54.190Z,30.70
2023-02-26T13:27:28.245Z,30.70
2023-02-26T13:30:13.095Z,30.80
2023-02-26T13:32:45.486Z,30.80
2023-02-26T13:35:37.611Z,30.80
2023-02-26T13:38:38.093Z,30.80
2023-02-26T13:41:41.950Z,30.80
2023-02-26T13:44:39.787Z,30.70
2023-02-26T13:48:09.279Z,30.50
2023-02-26T13:50:45.271Z,30.40
2023-02-26T13:53:28.230Z,30.20
2023-02-26T13:56:08.015Z,30.10
2023-02-26T13:58:40.857Z,29.90
2023-02-26T14:01:50.673Z,29.70
2023-02-26T14:04:23.592Z,29.60
2023-02-26T14:08:07.468Z,29.40
2023-02-26T14:10:56.921Z,29.30
2023-02-26T14:13:40.385Z,29.10
2023-02-26T14:16:14.161Z,29.00
2023-02-26T14:18:50.629Z,28.80
2023-02-26T14:21:39.548Z,28.70
2023-02-26T14:25:04.929Z,28.60
2023-02-26T14:27:37.487Z,28.50
2023-02-26T14:30:10.572Z,28.30
2023-02-26T14:33:06.282Z,28.20
2023-02-26T14:35:41.767Z,28.20
2023-02-26T14:38:20.546Z,28.00
2023-02-26T14:41:03.335Z,27.90
2023-02-26T14:43:44.899Z,27.80
2023-02-26T14:46:12.844Z,27.80
2023-02-26T14:48:40.453Z,27.70
2023-02-26T14:51:53.368Z,27.70
2023-02-26T14:54:39.665Z,27.70
2023-02-26T14:57:28.169Z,27.60
2023-02-26T15:00:30.402Z,27.60
2023-02-26T15:03:42.119Z,27.60
2023-02-26T15:06:24.204Z,27.50
2023-02-26T15:09:14.757Z,27.50
2023-02-26T15:12:08.371Z,27.40
2023-02-26T15:15:15.753Z,27.40
2023-02-26T15:17:48.444Z,27.40
2023-02-26T15:20:49.263Z,27.40
2023-02-26T15:23:40.876Z,27.30
2023-02-26T15:26:18.060Z,27.30
2023-02-26T15:28:45.798Z,27.30
2023-02-26T15:31:14.046Z,27.20
2023-02-26T15:33:45.524Z,27.20
2023-02-26T15:36:18.776Z,27.20
2023-02-26T15:38:58.767Z,27.20
2023-02-26T15:41:29.476Z,27.10
2023-02-26T15:44:07.050Z,27.10
2023-02-26T15:46:42.894Z,27.10
2023-02-26T15:49:30.029Z,27.00
2023-02-26T15:52:00.434Z,27.00
2023-02-26T15:54:38.798Z,27.00
2023-02-26T15:57:06.600Z,27.00
2023-02-26T15:59:33.998Z,27.00
2023-02-26T16:02:03.412Z,27.00
2023-02-26T16:04:30.370Z,27.00
2023-02-26T16:06:59.010Z,27.00
2023-02-26T16:09:34.651Z,27.10
2023-02-26T16:12:10.517Z,27.10
2023-02-26T16:14:45.325Z,27.20
2023-02-26T16:17:25.882Z,27.10
2023-02-26T16:19:57.123Z,27.10
2023-02-26T16:23:02.198Z,27.10
2023-02-26T16:25:31.840Z,27.10
2023-02-26T16:28:06.488Z,27.10
2023-02-26T16:30:39.392Z,27.10
2023-02-26T16:33:14.665Z,27.00
2023-02-26T16:36:02.631Z,27.10
2023-02-26T16:39:01.223Z,27.00
2023-02-26T16:41:35.874Z,27.00
2023-02-26T16:44:31.738Z,26.90
2023-02-26T16:47:00.797Z,26.90
2023-02-26T16:49:35.030Z,26.90
2023-02-26T16:52:04.239Z,26.90
2023-02-26T16:54:40.401Z,26.80
2023-02-26T16:57:34.247Z,26.80
2023-02-26T17:00:10.848Z,26.80
2023-02-26T17:02:39.907Z,26.70
2023-02-26T17:05:31.006Z,26.60
2023-02-26T17:08:19.466Z,26.60
2023-02-26T17:10:55.442Z,26.60
2023-02-26T17:13:29.865Z,26.50
2023-02-26T17:16:01.974Z,26.50
2023-02-26T17:18:30.913Z,26.40
2023-02-26T17:21:04.264Z,26.30
2023-02-26T17:23:39.920Z,26.30
2023-02-26T17:26:07.629Z,26.20
2023-02-26T17:28:41.928Z,26.20
2023-02-26T17:31:10.872Z,26.20
2023-02-26T17:33:41.971Z,26.10
2023-02-26T17:36:16.499Z,26.00
2023-02-26T17:38:47.114Z,26.00
2023-02-26T17:41:18.927Z,25.90
2023-02-26T17:43:46.111Z,25.80
2023-02-26T17:46:13.222Z,25.80
2023-02-26T17:48:41.308Z,25.80
2023-02-26T17:51:11.179Z,25.70
2023-02-26T17:53:41.102Z,25.60
2023-02-26T17:56:30.634Z,25.60
2023-02-26T17:59:01.210Z,25.50
2023-02-26T18:01:29.187Z,25.40
2023-02-26T18:03:57.154Z,25.30
2023-02-26T18:06:25.420Z,25.30
2023-02-26T18:08:54.179Z,25.20
2023-02-26T18:11:24.042Z,25.10
2023-02-26T18:13:52.439Z,25.00
2023-02-26T18:16:23.803Z,25.00
2023-02-26T18:18:51.139Z,25.00
2023-02-26T18:21:20.271Z,24.90
2023-02-26T18:23:47.394Z,24.80
2023-02-26T18:26:19.487Z,24.70
2023-02-26T18:28:46.493Z,24.70
2023-02-26T18:31:14.118Z,24.60
2023-02-26T18:33:44.031Z,24.50
2023-02-26T18:36:34.503Z,24.50
2023-02-26T18:39:12.484Z,24.10
2023-02-26T18:41:40.326Z,24.40
2023-02-26T18:44:07.389Z,24.40
2023-02-26T18:46:38.458Z,24.30
2023-02-26T18:49:05.877Z,24.20
2023-02-26T18:51:33.236Z,24.10
2023-02-26T18:54:00.521Z,24.10
2023-02-26T18:56:27.492Z,24.00
2023-02-26T18:58:54.515Z,24.00
2023-02-26T19:01:21.740Z,24.00
2023-02-26T19:03:48.867Z,23.90
2023-02-26T19:06:15.896Z,23.80
2023-02-26T19:08:43.093Z,23.80
2023-02-26T19:11:10.104Z,23.80
2023-02-26T19:13:37.105Z,23.70
2023-02-26T19:16:04.750Z,23.70
2023-02-26T19:18:32.676Z,23.60
2023-02-26T19:21:01.886Z,23.60
2023-02-26T19:23:29.001Z,23.50
2023-02-26T19:25:56.020Z,23.40
2023-02-26T19:28:23.461Z,23.40
2023-02-26T19:30:55.149Z,23.40
2023-02-26T19:33:23.966Z,23.30
2023-02-26T19:35:52.144Z,23.30
2023-02-26T19:38:19.268Z,23.20
2023-02-26T19:40:46.381Z,23.20
2023-02-26T19:43:13.438Z,23.10
2023-02-26T19:45:41.710Z,23.10
2023-02-26T19:48:08.591Z,23.10
2023-02-26T19:50:35.599Z,23.00
2023-02-26T19:53:03.817Z,23.00
2023-02-26T19:55:30.790Z,23.00
2023-02-26T19:57:57.844Z,22.90
2023-02-26T20:00:24.893Z,22.90
2023-02-26T20:02:51.936Z,22.80
2023-02-26T20:05:19.001Z,22.80
2023-02-26T20:07:46.575Z,22.80
2023-02-26T20:10:15.729Z,22.70
2023-02-26T20:12:45.809Z,22.70
2023-02-26T20:15:13.336Z,22.70
2023-02-26T20:17:40.318Z,22.70
2023-02-26T20:20:08.725Z,22.60
2023-02-26T20:22:36.259Z,22.60
2023-02-26T20:25:04.106Z,22.50
2023-02-26T20:27:32.077Z,22.60
2023-02-26T20:29:59.009Z,22.50
2023-02-26T20:32:26.184Z,22.50
2023-02-26T20:34:53.259Z,22.40
2023-02-26T20:37:20.204Z,22.40
2023-02-26T20:39:47.438Z,22.40
2023-02-26T20:42:14.934Z,22.40
2023-02-26T20:44:41.842Z,22.40
2023-02-26T20:47:09.318Z,22.30
2023-02-26T20:49:36.354Z,22.30
2023-02-26T20:52:03.650Z,22.30
2023-02-26T20:54:30.693Z,22.30
2023-02-26T20:56:57.796Z,22.30
2023-02-26T20:59:25.007Z,22.30
2023-02-26T21:01:53.370Z,22.20
2023-02-26T21:04:21.083Z,22.20
2023-02-26T21:06:48.159Z,22.20
2023-02-26T21:09:15.677Z,22.20
2023-02-26T21:11:42.743Z,22.10
2023-02-26T21:14:11.028Z,22.10
2023-02-26T21:16:40.722Z,22.10
2023-02-26T21:19:07.819Z,22.10
2023-02-26T21:21:34.968Z,22.10
2023-02-26T21:24:02.349Z,22.00
2023-02-26T21:26:29.376Z,22.00
2023-02-26T21:28:56.424Z,22.00
2023-02-26T21:31:24.053Z,22.00
2023-02-26T21:33:51.007Z,22.00
2023-02-26T21:36:17.977Z,22.00
2023-02-26T21:38:45.170Z,22.00
2023-02-26T21:41:12.278Z,21.90
2023-02-26T21:43:39.563Z,21.90
2023-02-26T21:46:06.770Z,21.90
2023-02-26T21:48:34.139Z,21.80
2023-02-26T21:51:01.376Z,21.80
2023-02-26T21:53:28.672Z,21.80
2023-02-26T21:55:56.908Z,21.80
2023-02-26T21:58:25.490Z,21.80
2023-02-26T22:00:52.879Z,21.80
2023-02-26T22:03:20.095Z,21.70
2023-02-26T22:05:51.041Z,21.70
2023-02-26T22:08:19.650Z,21.70
2023-02-26T22:10:46.853Z,21.70
2023-02-26T22:13:14.156Z,21.70
2023-02-26T22:15:41.838Z,21.70
2023-02-26T22:18:08.935Z,21.60
2023-02-26T22:20:35.871Z,21.60
2023-02-26T22:23:02.976Z,21.60
2023-02-26T22:25:31.177Z,21.60
2023-02-26T22:27:59.813Z,21.50
2023-02-26T22:30:27.009Z,21.60
2023-02-26T22:32:54.064Z,21.50
2023-02-26T22:35:21.034Z,21.50
2023-02-26T22:37:48.254Z,21.50
2023-02-26T22:40:15.268Z,21.50
2023-02-26T22:42:43.788Z,21.50
2023-02-26T22:45:13.782Z,21.40
2023-02-26T22:47:40.872Z,21.40
2023-02-26T22:50:08.321Z,21.40
2023-02-26T22:52:35.636Z,21.40
2023-02-26T22:55:02.671Z,21.40
2023-02-26T22:57:29.661Z,21.40
2023-02-26T22:59:56.731Z,21.30
2023-02-26T23:02:24.174Z,21.30
2023-02-26T23:04:51.551Z,21.30
2023-02-26T23:07:19.306Z,21.30
2023-02-26T23:09:46.386Z,21.30
2023-02-26T23:12:14.068Z,21.30
2023-02-26T23:14:41.134Z,21.20
2023-02-26T23:17:10.278Z,21.30
2023-02-26T23:19:38.163Z,21.20
2023-02-26T23:22:05.063Z,21.20
2023-02-26T23:24:32.605Z,21.20
2023-02-26T23:26:59.586Z,21.20
2023-02-26T23:29:27.009Z,21.20
2023-02-26T23:31:54.212Z,21.20
2023-02-26T23:34:21.373Z,21.20
2023-02-26T23:36:48.249Z,21.10
2023-02-26T23:39:15.321Z,21.10
2023-02-26T23:41:42.305Z,21.10
2023-02-26T23:44:09.232Z,21.10
2023-02-26T23:46:37.365Z,21.10
2023-02-26T23:49:04.734Z,21.10
2023-02-26T23:51:31.684Z,21.10
2023-02-26T23:53:58.695Z,21.00
2023-02-26T23:56:25.661Z,21.00
2023-02-26T23:58:53.465Z,21.00
